createdAt,value
2022-09-12T04:30:55.656Z,19.00
2022-09-12T04:31:55.567Z,18.60
2022-09-12T04:32:55.555Z,17.70
2022-09-12T04:33:55.529Z,19.60
2022-09-12T04:34:55.527Z,18.20
2022-09-12T04:35:55.548Z,16.50
2022-09-12T04:36:55.561Z,17.00
2022-09-12T04:37:55.556Z,17.10
2022-09-12T04:38:55.467Z,18.00
2022-09-12T04:39:55.503Z,20.00
2022-09-12T04:40:55.476Z,19.60
2022-09-12T04:41:55.507Z,17.60
2022-09-12T04:42:55.424Z,17.30
2022-09-12T04:43:55.403Z,17.10
2022-09-12T04:45:02.444Z,17.90
2022-09-12T04:45:55.445Z,18.40
2022-09-12T04:46:55.445Z,17.80
2022-09-12T04:47:55.346Z,18.10
2022-09-12T04:48:56.994Z,18.20
2022-09-12T04:49:55.324Z,18.70
2022-09-12T04:50:55.371Z,18.60
2022-09-12T04:51:55.334Z,18.60
2022-09-12T04:52:55.312Z,18.40
2022-09-12T04:53:55.265Z,17.50
2022-09-12T04:54:55.263Z,18.10
2022-09-12T04:55:55.302Z,18.70
2022-09-12T04:56:55.249Z,19.80
2022-09-12T04:57:55.214Z,19.40
2022-09-12T04:58:55.212Z,17.50
2022-09-12T04:59:55.192Z,17.30
2022-09-12T05:00:55.249Z,17.50
2022-09-12T05:01:55.261Z,16.60
2022-09-12T05:02:55.153Z,17.50
2022-09-12T05:03:55.142Z,16.80
2022-09-12T05:04:55.122Z,16.90
2022-09-12T05:05:56.523Z,17.10
2022-09-12T05:06:55.112Z,18.00
2022-09-12T05:07:55.092Z,15.80
2022-09-12T05:08:55.079Z,17.70
2022-09-12T05:09:55.071Z,18.00
2022-09-12T05:10:55.051Z,17.30
2022-09-12T05:12:10.453Z,16.70
2022-09-12T05:12:56.035Z,16.70
2022-09-12T05:13:55.054Z,16.70
2022-09-12T05:14:55.019Z,16.40
2022-09-12T05:15:54.990Z,15.30
2022-09-12T05:16:55.052Z,15.50
2022-09-12T05:17:54.955Z,16.70
2022-09-12T05:18:54.944Z,17.10
2022-09-12T05:19:54.931Z,15.70
2022-09-12T05:20:54.920Z,15.00
2022-09-12T05:21:54.920Z,15.70
2022-09-12T05:22:54.890Z,15.50
2022-09-12T05:23:54.880Z,15.40
2022-09-12T05:24:54.889Z,15.00
2022-09-12T05:25:54.850Z,14.90
2022-09-12T05:26:54.860Z,15.10
2022-09-12T05:27:54.830Z,14.30
2022-09-12T05:28:54.819Z,14.90
2022-09-12T05:29:54.798Z,14.40
2022-09-12T05:30:54.831Z,14.50
2022-09-12T05:31:54.788Z,13.70
2022-09-12T05:32:54.764Z,14.30
2022-09-12T05:33:54.749Z,14.30
2022-09-12T05:34:54.739Z,14.10
2022-09-12T05:35:54.718Z,15.20
2022-09-12T05:36:54.728Z,14.70
2022-09-12T05:37:54.699Z,14.80
2022-09-12T05:38:54.689Z,15.20
2022-09-12T05:39:54.739Z,15.50
2022-09-12T05:40:54.658Z,14.60
2022-09-12T05:41:54.659Z,15.10
2022-09-12T05:42:54.629Z,17.00
2022-09-12T05:43:54.628Z,15.40
2022-09-12T05:44:54.610Z,16.20
2022-09-12T05:45:54.616Z,15.60
2022-09-12T05:46:54.590Z,16.10
2022-09-12T05:47:54.568Z,16.20
2022-09-12T05:48:56.426Z,15.70
2022-09-12T05:49:54.568Z,16.30
2022-09-12T05:50:54.638Z,15.90
2022-09-12T05:51:54.537Z,16.10
2022-09-12T05:52:54.584Z,16.20
2022-09-12T05:53:54.489Z,15.50
2022-09-12T05:54:54.476Z,15.10
2022-09-12T05:55:54.471Z,15.60
2022-09-12T05:56:54.457Z,16.30
2022-09-12T05:57:54.436Z,16.50
2022-09-12T05:58:54.428Z,15.20
2022-09-12T05:59:54.429Z,15.20
2022-09-12T06:00:54.399Z,14.90
2022-09-12T06:01:54.416Z,15.70
2022-09-12T06:02:54.394Z,14.60
2022-09-12T06:03:54.368Z,14.80
2022-09-12T06:04:54.405Z,16.00
2022-09-12T06:05:54.336Z,14.00
2022-09-12T06:06:54.349Z,14.80
2022-09-12T06:07:54.307Z,14.40
2022-09-12T06:08:54.295Z,15.20
2022-09-12T06:09:54.285Z,14.20
2022-09-12T06:10:54.344Z,14.50
2022-09-12T06:11:54.275Z,14.40
2022-09-12T06:12:54.236Z,14.60
2022-09-12T06:13:54.234Z,14.80
2022-09-12T06:14:54.215Z,14.40
2022-09-12T06:15:54.215Z,13.90
2022-09-12T06:16:54.278Z,14.40
2022-09-12T06:17:54.185Z,14.30
2022-09-12T06:18:54.165Z,13.40
2022-09-12T06:19:54.170Z,14.00
2022-09-12T06:20:54.134Z,13.30
2022-09-12T06:21:54.144Z,13.60
2022-09-12T06:22:54.118Z,12.80
2022-09-12T06:23:54.104Z,12.30
2022-09-12T06:24:57.845Z,12.40
2022-09-12T06:25:54.086Z,11.70
2022-09-12T06:26:54.074Z,12.00
2022-09-12T06:27:54.058Z,12.60
2022-09-12T06:28:54.048Z,12.20
2022-09-12T06:29:54.078Z,12.10
2022-09-12T06:30:54.022Z,11.80
2022-09-12T06:31:54.010Z,12.40
2022-09-12T06:32:53.973Z,12.10
2022-09-12T06:33:53.974Z,11.70
2022-09-12T06:34:53.963Z,11.30
2022-09-12T06:35:53.952Z,11.90
2022-09-12T06:36:53.942Z,10.70
2022-09-12T06:37:53.954Z,12.00
2022-09-12T06:38:53.964Z,11.40
2022-09-12T06:39:54.013Z,11.00
2022-09-12T06:40:53.875Z,11.50
2022-09-12T06:41:53.913Z,11.40
2022-09-12T06:42:53.854Z,11.20
2022-09-12T06:43:53.845Z,10.60
2022-09-12T06:44:53.822Z,10.50
2022-09-12T06:45:53.861Z,10.90
2022-09-12T06:46:53.792Z,10.90
2022-09-12T06:47:53.802Z,10.30
2022-09-12T06:48:53.773Z,10.60
2022-09-12T06:49:53.772Z,10.30
2022-09-12T06:50:53.754Z,10.10
2022-09-12T06:51:53.753Z,11.40
2022-09-12T06:52:53.734Z,10.50
2022-09-12T06:53:53.711Z,10.20
2022-09-12T06:54:53.702Z,10.20
2022-09-12T06:55:53.704Z,10.20
2022-09-12T06:56:53.702Z,10.40
2022-09-12T06:57:53.682Z,11.10
2022-09-12T06:58:53.643Z,10.30
2022-09-12T06:59:53.702Z,10.20
2022-09-12T07:00:57.253Z,10.20
2022-09-12T07:01:54.685Z,10.20
2022-09-12T07:02:53.823Z,10.40
2022-09-12T07:03:53.581Z,10.20
2022-09-12T07:04:53.621Z,10.00
2022-09-12T07:05:53.551Z,10.70
2022-09-12T07:06:53.583Z,10.00
2022-09-12T07:07:53.542Z,10.00
2022-09-12T07:08:53.516Z,10.40
2022-09-12T07:09:53.543Z,10.10
2022-09-12T07:10:53.489Z,9.30
2022-09-12T07:11:53.551Z,9.40
2022-09-12T07:12:53.512Z,9.40
2022-09-12T07:13:53.451Z,8.60
2022-09-12T07:14:53.461Z,10.20
2022-09-12T07:15:53.421Z,10.10
2022-09-12T07:16:53.466Z,9.60
2022-09-12T07:17:53.402Z,8.80
2022-09-12T07:18:53.441Z,10.20
2022-09-12T07:19:53.381Z,8.90
2022-09-12T07:20:53.364Z,9.10
2022-09-12T07:21:58.439Z,8.90
2022-09-12T07:22:54.339Z,8.60
2022-09-12T07:23:53.321Z,9.10
2022-09-12T07:24:53.299Z,9.70
2022-09-12T07:25:53.291Z,8.70
2022-09-12T07:26:53.281Z,9.50
2022-09-12T07:27:53.282Z,9.40
2022-09-12T07:28:53.275Z,9.10
2022-09-12T07:29:53.270Z,9.50
2022-09-12T07:30:53.264Z,9.50
2022-09-12T07:31:53.209Z,9.20
2022-09-12T07:32:53.191Z,9.30
2022-09-12T07:33:54.854Z,9.40
2022-09-12T07:34:53.190Z,9.20
2022-09-12T07:35:53.300Z,9.90
2022-09-12T07:36:53.142Z,9.30
2022-09-12T07:37:53.131Z,9.20
2022-09-12T07:38:57.129Z,9.20
2022-09-12T07:39:53.141Z,9.30
2022-09-12T07:40:53.101Z,10.10
2022-09-12T07:41:53.083Z,9.40
2022-09-12T07:42:53.060Z,9.00
2022-09-12T07:43:53.075Z,10.10
2022-09-12T07:44:53.032Z,9.10
2022-09-12T07:45:53.053Z,9.60
2022-09-12T07:46:53.019Z,10.00
2022-09-12T07:47:53.012Z,9.50
2022-09-12T07:48:53.011Z,9.60
2022-09-12T07:49:52.995Z,10.50
2022-09-12T07:50:52.970Z,8.90
2022-09-12T07:51:52.957Z,10.00
2022-09-12T07:52:52.979Z,9.40
2022-09-12T07:53:52.919Z,9.60
2022-09-12T07:54:52.909Z,9.40
2022-09-12T07:55:52.889Z,9.00
2022-09-12T07:56:52.879Z,10.10
2022-09-12T07:57:52.867Z,10.10
2022-09-12T07:58:52.872Z,9.00
2022-09-12T07:59:53.518Z,9.20
2022-09-12T08:00:52.829Z,10.00
2022-09-12T08:01:52.808Z,10.20
2022-09-12T08:02:53.366Z,9.50
2022-09-12T08:03:52.790Z,10.20
2022-09-12T08:04:52.789Z,9.90
2022-09-12T08:05:52.772Z,8.90
2022-09-12T08:06:52.777Z,9.70
2022-09-12T08:07:55.861Z,10.60
2022-09-12T08:08:53.751Z,10.10
2022-09-12T08:09:52.706Z,9.80
2022-09-12T08:10:52.697Z,10.50
2022-09-12T08:11:52.679Z,10.30
2022-09-12T08:12:52.676Z,9.80
2022-09-12T08:13:55.701Z,9.00
2022-09-12T08:14:52.658Z,9.40
2022-09-12T08:15:52.677Z,9.30
2022-09-12T08:16:52.622Z,9.80
2022-09-12T08:17:52.599Z,9.20
2022-09-12T08:18:52.606Z,9.50
2022-09-12T08:19:52.580Z,11.20
2022-09-12T08:20:52.570Z,9.50
2022-09-12T08:21:52.549Z,9.50
2022-09-12T08:22:52.558Z,10.00
2022-09-12T08:23:52.673Z,9.70
2022-09-12T08:24:52.611Z,9.60
2022-09-12T08:25:52.518Z,10.70
2022-09-12T08:26:52.500Z,9.40
2022-09-12T08:27:52.478Z,9.30
2022-09-12T08:28:52.509Z,9.80
2022-09-12T08:29:52.451Z,9.40
2022-09-12T08:30:52.536Z,9.40
2022-09-12T08:31:56.992Z,9.30
2022-09-12T08:32:53.409Z,9.70
2022-09-12T08:33:52.389Z,9.60
2022-09-12T08:34:52.399Z,11.00
2022-09-12T08:35:52.371Z,9.50
2022-09-12T08:36:52.359Z,9.40
2022-09-12T08:37:52.347Z,9.40
2022-09-12T08:38:54.428Z,10.80
2022-09-12T08:39:53.371Z,9.20
2022-09-12T08:40:52.309Z,9.30
2022-09-12T08:41:52.289Z,9.10
2022-09-12T08:42:52.308Z,9.40
2022-09-12T08:43:54.640Z,9.90
2022-09-12T08:44:52.258Z,9.30
2022-09-12T08:45:52.266Z,9.70
2022-09-12T08:46:52.230Z,9.70
2022-09-12T08:47:52.218Z,9.40
2022-09-12T08:48:52.213Z,9.50
2022-09-12T08:49:52.209Z,9.60
2022-09-12T08:50:52.178Z,10.00
2022-09-12T08:51:52.159Z,9.10
2022-09-12T08:52:52.158Z,9.40
2022-09-12T08:53:52.139Z,9.30
2022-09-12T08:54:52.159Z,10.70
2022-09-12T08:55:52.108Z,9.10
2022-09-12T08:56:52.099Z,9.40
2022-09-12T08:57:52.086Z,9.40
2022-09-12T08:58:52.088Z,9.30
2022-09-12T08:59:52.078Z,8.90
2022-09-12T09:00:52.058Z,9.50
2022-09-12T09:01:52.094Z,9.10
2022-09-12T09:02:52.092Z,8.40
2022-09-12T09:03:52.009Z,7.90
2022-09-12T09:04:52.019Z,8.50
2022-09-12T09:05:51.978Z,8.50
2022-09-12T09:06:51.978Z,8.70
2022-09-12T09:07:51.958Z,8.70
2022-09-12T09:08:51.947Z,8.90
2022-09-12T09:09:51.938Z,8.90
2022-09-12T09:10:51.923Z,8.90
2022-09-12T09:11:51.909Z,8.70
2022-09-12T09:12:51.908Z,9.00
2022-09-12T09:13:51.879Z,8.30
2022-09-12T09:14:51.890Z,8.30
2022-09-12T09:15:51.873Z,8.30
2022-09-12T09:16:51.849Z,8.30
2022-09-12T09:17:51.839Z,8.80
2022-09-12T09:18:51.840Z,8.00
2022-09-12T09:19:51.819Z,8.90
2022-09-12T09:20:51.790Z,8.50
2022-09-12T09:21:51.790Z,8.30
2022-09-12T09:22:53.522Z,8.40
2022-09-12T09:23:51.748Z,8.50
2022-09-12T09:24:51.759Z,9.10
2022-09-12T09:25:51.719Z,8.10
2022-09-12T09:26:51.717Z,11.30
2022-09-12T09:27:51.698Z,8.90
2022-09-12T09:28:51.688Z,8.60
2022-09-12T09:29:51.689Z,8.80
2022-09-12T09:30:51.726Z,8.80
2022-09-12T09:31:51.648Z,8.40
2022-09-12T09:32:51.643Z,9.10
2022-09-12T09:33:51.618Z,8.60
2022-09-12T09:34:51.627Z,9.90
2022-09-12T09:35:51.599Z,8.50
2022-09-12T09:36:51.598Z,9.30
2022-09-12T09:37:54.492Z,8.90
2022-09-12T09:38:54.217Z,8.90
2022-09-12T09:39:51.622Z,9.10
2022-09-12T09:40:51.605Z,8.20
2022-09-12T09:41:51.527Z,8.30
2022-09-12T09:42:51.509Z,9.10
2022-09-12T09:43:51.495Z,8.90
2022-09-12T09:44:51.489Z,7.30
2022-09-12T09:45:51.515Z,7.60
2022-09-12T09:46:51.449Z,7.80
2022-09-12T09:47:51.439Z,7.60
2022-09-12T09:48:51.429Z,8.90
2022-09-12T09:49:51.469Z,8.70
2022-09-12T09:50:51.398Z,7.90
2022-09-12T09:51:51.388Z,8.50
2022-09-12T09:52:51.380Z,8.40
2022-09-12T09:53:51.370Z,9.20
2022-09-12T09:54:51.378Z,8.90
2022-09-12T09:55:51.358Z,9.60
2022-09-12T09:56:51.330Z,9.10
2022-09-12T09:57:51.310Z,8.70
2022-09-12T09:58:51.298Z,9.00
2022-09-12T09:59:51.420Z,9.20
2022-09-12T10:00:54.917Z,9.40
2022-09-12T10:01:52.328Z,9.20
2022-09-12T10:02:51.285Z,9.00
2022-09-12T10:03:51.250Z,9.30
2022-09-12T10:04:51.241Z,8.60
2022-09-12T10:05:51.222Z,8.70
2022-09-12T10:06:51.200Z,8.50
2022-09-12T10:07:51.181Z,8.80
2022-09-12T10:08:51.160Z,9.30
2022-09-12T10:09:51.178Z,8.80
2022-09-12T10:10:51.170Z,9.70
2022-09-12T10:11:51.142Z,8.40
2022-09-12T10:12:51.111Z,8.60
2022-09-12T10:13:51.111Z,9.10
2022-09-12T10:14:51.111Z,8.70
2022-09-12T10:15:51.127Z,9.10
2022-09-12T10:16:51.061Z,8.30
2022-09-12T10:17:51.060Z,9.10
2022-09-12T10:18:51.040Z,8.50
2022-09-12T10:20:10.588Z,8.60
2022-09-12T10:20:52.011Z,8.30
2022-09-12T10:21:51.002Z,7.90
2022-09-12T10:22:50.981Z,8.30
2022-09-12T10:23:50.982Z,8.60
2022-09-12T10:24:50.973Z,8.50
2022-09-12T10:25:50.961Z,8.80
2022-09-12T10:26:55.947Z,8.30
2022-09-12T10:27:51.933Z,8.50
2022-09-12T10:28:50.913Z,8.10
2022-09-12T10:29:50.922Z,7.80
2022-09-12T10:30:50.935Z,7.60
2022-09-12T10:31:50.893Z,7.80
2022-09-12T10:32:50.854Z,7.60
2022-09-12T10:33:50.852Z,8.00
2022-09-12T10:34:50.832Z,7.50
2022-09-12T10:35:50.845Z,7.50
2022-09-12T10:36:50.802Z,9.10
2022-09-12T10:37:52.324Z,7.70
2022-09-12T10:38:50.782Z,8.00
2022-09-12T10:39:50.835Z,7.70
2022-09-12T10:40:50.791Z,8.20
2022-09-12T10:41:50.752Z,7.90
2022-09-12T10:42:50.732Z,7.10
2022-09-12T10:43:50.724Z,7.60
2022-09-12T10:44:57.770Z,7.50
2022-09-12T10:45:50.764Z,6.20
2022-09-12T10:46:50.680Z,6.80
2022-09-12T10:47:50.673Z,6.90
2022-09-12T10:48:50.660Z,6.50
2022-09-12T10:49:50.643Z,7.20
2022-09-12T10:50:50.656Z,7.00
2022-09-12T10:51:50.623Z,6.50
2022-09-12T10:52:50.604Z,7.10
2022-09-12T10:53:50.591Z,6.20
2022-09-12T10:54:50.581Z,6.90
2022-09-12T10:55:50.573Z,6.60
2022-09-12T10:56:50.562Z,6.40
2022-09-12T10:57:50.543Z,6.00
2022-09-12T10:58:50.532Z,5.90
2022-09-12T10:59:50.515Z,7.40
2022-09-12T11:00:50.513Z,6.50
2022-09-12T11:01:50.514Z,6.90
2022-09-12T11:02:50.504Z,6.90
2022-09-12T11:03:50.473Z,7.30
2022-09-12T11:04:50.451Z,6.20
2022-09-12T11:05:50.453Z,6.00
2022-09-12T11:06:50.423Z,5.80
2022-09-12T11:07:50.414Z,6.20
2022-09-12T11:08:50.394Z,6.70
2022-09-12T11:09:50.395Z,6.20
2022-09-12T11:10:50.394Z,6.80
2022-09-12T11:11:50.364Z,6.40
2022-09-12T11:12:50.346Z,7.10
2022-09-12T11:13:50.347Z,6.40
2022-09-12T11:14:50.325Z,7.00
2022-09-12T11:15:50.370Z,7.10
2022-09-12T11:16:50.316Z,6.20
2022-09-12T11:17:50.294Z,5.90
2022-09-12T11:18:50.267Z,5.60
2022-09-12T11:19:50.264Z,6.10
2022-09-12T11:20:50.254Z,5.40
2022-09-12T11:21:50.235Z,5.30
2022-09-12T11:22:50.216Z,4.80
2022-09-12T11:23:50.208Z,5.50
2022-09-12T11:24:50.197Z,5.40
2022-09-12T11:25:50.195Z,5.10
2022-09-12T11:26:50.167Z,4.70
2022-09-12T11:27:50.174Z,5.30
2022-09-12T11:28:50.157Z,5.50
2022-09-12T11:29:50.159Z,5.50
2022-09-12T11:30:50.196Z,5.10
2022-09-12T11:31:50.106Z,4.80
2022-09-12T11:32:50.097Z,5.00
2022-09-12T11:33:50.179Z,5.00
2022-09-12T11:34:50.075Z,5.10
2022-09-12T11:35:55.002Z,4.90
2022-09-12T11:36:51.057Z,5.00
2022-09-12T11:37:50.037Z,5.20
2022-09-12T11:38:50.027Z,5.40
2022-09-12T11:39:54.771Z,5.10
2022-09-12T11:40:50.991Z,5.00
2022-09-12T11:41:49.998Z,5.10
2022-09-12T11:42:49.968Z,4.90
2022-09-12T11:43:49.959Z,5.20
2022-09-12T11:44:49.939Z,5.10
2022-09-12T11:45:49.990Z,4.80
2022-09-12T11:46:51.910Z,4.90
2022-09-12T11:47:49.913Z,5.40
2022-09-12T11:48:49.889Z,5.20
2022-09-12T11:49:49.892Z,5.30
2022-09-12T11:50:49.867Z,5.10
2022-09-12T11:51:49.880Z,5.70
2022-09-12T11:52:49.839Z,5.20
2022-09-12T11:53:49.830Z,4.30
2022-09-12T11:54:53.560Z,4.10
2022-09-12T11:55:49.810Z,4.70
2022-09-12T11:56:49.809Z,4.70
2022-09-12T11:57:49.790Z,4.70
2022-09-12T11:58:49.770Z,4.50
2022-09-12T11:59:49.761Z,4.80
2022-09-12T12:00:49.750Z,4.60
2022-09-12T12:01:49.772Z,4.10
2022-09-12T12:02:49.767Z,3.90
2022-09-12T12:03:49.788Z,3.60
2022-09-12T12:04:49.691Z,4.50
2022-09-12T12:05:49.691Z,5.00
2022-09-12T12:06:49.682Z,3.50
2022-09-12T12:07:49.662Z,4.10
2022-09-12T12:08:49.651Z,3.60
2022-09-12T12:09:49.651Z,4.90
2022-09-12T12:10:49.623Z,4.60
2022-09-12T12:11:49.624Z,4.40
2022-09-12T12:12:49.593Z,4.40
2022-09-12T12:13:49.593Z,3.70
2022-09-12T12:14:49.573Z,3.40
2022-09-12T12:15:49.588Z,3.40
2022-09-12T12:16:49.553Z,3.20
2022-09-12T12:17:49.535Z,3.00
2022-09-12T12:18:49.524Z,2.80
2022-09-12T12:19:49.515Z,3.20
2022-09-12T12:20:49.494Z,3.00
2022-09-12T12:21:49.505Z,3.60
2022-09-12T12:22:49.465Z,3.90
2022-09-12T12:23:49.466Z,3.90
2022-09-12T12:24:49.445Z,3.30
2022-09-12T12:25:49.435Z,3.50
2022-09-12T12:26:49.435Z,4.60
2022-09-12T12:27:49.423Z,3.50
2022-09-12T12:28:49.459Z,3.50
2022-09-12T12:29:49.385Z,4.40
2022-09-12T12:30:49.454Z,3.40
2022-09-12T12:31:49.385Z,3.50
2022-09-12T12:32:49.346Z,3.10
2022-09-12T12:33:49.345Z,3.60
2022-09-12T12:34:49.320Z,3.50
2022-09-12T12:35:49.319Z,3.80
2022-09-12T12:36:49.328Z,3.80
2022-09-12T12:37:49.306Z,4.10
2022-09-12T12:38:49.281Z,4.10
2022-09-12T12:39:49.388Z,3.60
2022-09-12T12:40:49.249Z,3.80
2022-09-12T12:41:49.239Z,3.60
2022-09-12T12:42:49.238Z,3.30
2022-09-12T12:43:49.220Z,2.90
2022-09-12T12:44:49.199Z,3.00
2022-09-12T12:45:49.189Z,3.00
2022-09-12T12:46:49.197Z,2.60
2022-09-12T12:47:49.168Z,2.70
2022-09-12T12:48:49.157Z,2.80
2022-09-12T12:49:49.148Z,3.10
2022-09-12T12:50:49.128Z,2.60
2022-09-12T12:51:49.119Z,2.50
2022-09-12T12:52:49.119Z,2.30
2022-09-12T12:53:49.099Z,2.60
2022-09-12T12:54:49.079Z,1.90
2022-09-12T12:55:49.077Z,2.30
2022-09-12T12:56:49.049Z,2.10
2022-09-12T12:57:49.050Z,2.30
2022-09-12T12:58:49.029Z,2.20
2022-09-12T12:59:49.030Z,2.30
2022-09-12T13:00:49.003Z,2.00
2022-09-12T13:01:54.252Z,2.00
2022-09-12T13:02:50.032Z,2.20
2022-09-12T13:03:48.974Z,3.00
2022-09-12T13:04:48.952Z,2.30
2022-09-12T13:05:48.952Z,2.10
2022-09-12T13:06:48.932Z,1.90
2022-09-12T13:07:48.933Z,1.90
2022-09-12T13:08:48.903Z,2.10
2022-09-12T13:09:48.902Z,1.80
2022-09-12T13:10:48.882Z,1.90
2022-09-12T13:11:48.885Z,1.70
2022-09-12T13:12:48.870Z,1.90
2022-09-12T13:13:48.851Z,2.00
2022-09-12T13:14:48.831Z,1.80
2022-09-12T13:15:48.894Z,1.90
2022-09-12T13:16:48.823Z,1.90
2022-09-12T13:17:48.819Z,1.70
2022-09-12T13:18:48.784Z,1.70
2022-09-12T13:19:48.775Z,1.90
2022-09-12T13:20:48.766Z,1.80
2022-09-12T13:21:48.755Z,1.70
2022-09-12T13:22:48.747Z,1.70
2022-09-12T13:23:48.724Z,1.70
2022-09-12T13:24:48.718Z,1.70
2022-09-12T13:25:48.704Z,1.70
2022-09-12T13:26:48.684Z,1.60
2022-09-12T13:27:48.695Z,1.70
2022-09-12T13:28:48.665Z,1.80
2022-09-12T13:29:48.664Z,1.80
2022-09-12T13:30:48.679Z,1.60
2022-09-12T13:31:48.635Z,1.70
2022-09-12T13:32:48.646Z,1.70
2022-09-12T13:33:48.606Z,1.70
2022-09-12T13:34:48.593Z,1.70
2022-09-12T13:35:48.586Z,1.70
2022-09-12T13:36:48.588Z,1.80
2022-09-12T13:37:51.339Z,1.90
2022-09-12T13:38:48.671Z,1.90
2022-09-12T13:39:48.578Z,2.00
2022-09-12T13:40:48.517Z,1.70
2022-09-12T13:41:48.507Z,1.80
2022-09-12T13:42:48.507Z,1.80
2022-09-12T13:43:48.487Z,2.10
2022-09-12T13:44:49.321Z,1.70
2022-09-12T13:45:48.528Z,2.00
2022-09-12T13:46:48.448Z,1.60
2022-09-12T13:47:48.447Z,1.90
2022-09-12T13:48:48.500Z,1.70
2022-09-12T13:49:48.408Z,1.80
2022-09-12T13:50:48.399Z,1.70
2022-09-12T13:51:48.390Z,1.80
2022-09-12T13:52:48.390Z,1.80
2022-09-12T13:53:48.368Z,1.80
2022-09-12T13:54:48.358Z,1.70
2022-09-12T13:55:48.339Z,1.80
2022-09-12T13:56:48.333Z,2.00
2022-09-12T13:57:48.331Z,1.80
2022-09-12T13:58:48.380Z,2.10
2022-09-12T13:59:48.291Z,1.90
2022-09-12T14:00:48.281Z,1.90
2022-09-12T14:01:48.358Z,2.20
2022-09-12T14:02:48.396Z,2.10
2022-09-12T14:03:48.244Z,2.10
2022-09-12T14:04:48.243Z,2.20
2022-09-12T14:05:48.237Z,1.90
2022-09-12T14:06:48.220Z,1.90
2022-09-12T14:07:48.206Z,1.70
2022-09-12T14:08:48.449Z,1.70
2022-09-12T14:09:48.170Z,2.40
2022-09-12T14:10:48.152Z,1.80
2022-09-12T14:11:48.150Z,1.70
2022-09-12T14:12:48.140Z,1.80
2022-09-12T14:13:48.124Z,1.70
2022-09-12T14:14:48.103Z,1.80
2022-09-12T14:15:48.127Z,1.70
2022-09-12T14:16:48.084Z,2.00
2022-09-12T14:17:48.092Z,1.80
2022-09-12T14:18:48.185Z,1.90
2022-09-12T14:19:48.044Z,1.70
2022-09-12T14:20:48.043Z,1.80
2022-09-12T14:21:48.026Z,1.80
2022-09-12T14:22:50.983Z,2.10
2022-09-12T14:23:47.997Z,1.90
2022-09-12T14:24:47.985Z,1.90
2022-09-12T14:25:47.977Z,1.60
2022-09-12T14:26:47.963Z,1.70
2022-09-12T14:27:47.964Z,1.80
2022-09-12T14:28:48.008Z,1.70
2022-09-12T14:29:47.925Z,1.90
2022-09-12T14:30:47.948Z,1.90
2022-09-12T14:31:47.904Z,1.90
2022-09-12T14:32:47.895Z,1.80
2022-09-12T14:33:47.885Z,1.80
2022-09-12T14:34:47.857Z,2.10
2022-09-12T14:35:47.845Z,2.10
2022-09-12T14:36:47.835Z,1.80
2022-09-12T14:37:47.887Z,1.90
2022-09-12T14:38:47.897Z,2.20
2022-09-12T14:39:47.828Z,1.70
2022-09-12T14:40:47.787Z,1.80
2022-09-12T14:41:47.777Z,1.70
2022-09-12T14:42:47.777Z,1.70
2022-09-12T14:43:47.761Z,1.80
2022-09-12T14:44:47.747Z,1.70
2022-09-12T14:45:47.728Z,1.80
2022-09-12T14:46:47.716Z,2.00
2022-09-12T14:47:47.719Z,1.70
2022-09-12T14:48:47.813Z,1.90
2022-09-12T14:49:47.678Z,1.90
2022-09-12T14:50:47.667Z,1.60
2022-09-12T14:51:51.234Z,2.00
2022-09-12T14:52:47.707Z,1.70
2022-09-12T14:53:47.808Z,1.90
2022-09-12T14:54:47.619Z,1.90
2022-09-12T14:55:47.609Z,1.90
2022-09-12T14:56:47.589Z,1.80
2022-09-12T14:57:47.581Z,1.70
2022-09-12T14:58:47.580Z,1.80
2022-09-12T14:59:47.561Z,2.00
2022-09-12T15:00:47.540Z,1.90
2022-09-12T15:01:47.576Z,1.80
2022-09-12T15:02:47.519Z,1.80
2022-09-12T15:03:49.862Z,2.00
2022-09-12T15:04:47.501Z,1.90
2022-09-12T15:05:47.490Z,2.00
2022-09-12T15:06:47.470Z,1.90
2022-09-12T15:07:47.460Z,1.70
2022-09-12T15:08:47.452Z,1.80
2022-09-12T15:09:47.532Z,1.80
2022-09-12T15:10:47.419Z,2.20
2022-09-12T15:11:47.412Z,2.00
2022-09-12T15:12:47.392Z,2.00
2022-09-12T15:13:47.535Z,2.10
2022-09-12T15:14:47.372Z,1.90
2022-09-12T15:15:47.378Z,1.80
2022-09-12T15:16:47.343Z,2.00
2022-09-12T15:17:47.341Z,1.80
2022-09-12T15:18:47.333Z,2.00
2022-09-12T15:19:47.313Z,1.80
2022-09-12T15:20:47.292Z,1.90
2022-09-12T15:21:47.293Z,1.90
2022-09-12T15:22:47.291Z,3.20
2022-09-12T15:23:47.422Z,2.00
2022-09-12T15:24:47.246Z,2.40
2022-09-12T15:25:47.242Z,1.90
2022-09-12T15:26:47.223Z,2.00
2022-09-12T15:27:47.216Z,1.90
2022-09-12T15:28:47.204Z,1.90
2022-09-12T15:29:47.240Z,1.80
2022-09-12T15:30:47.191Z,1.90
2022-09-12T15:31:47.165Z,1.80
2022-09-12T15:32:47.144Z,1.90
2022-09-12T15:33:47.272Z,1.90
2022-09-12T15:34:47.124Z,1.90
2022-09-12T15:35:47.124Z,2.00
2022-09-12T15:36:47.095Z,2.00
2022-09-12T15:37:47.085Z,2.00
2022-09-12T15:38:47.088Z,1.80
2022-09-12T15:39:47.121Z,1.80
2022-09-12T15:40:47.054Z,2.00
2022-09-12T15:41:47.036Z,1.80
2022-09-12T15:42:47.026Z,1.80
2022-09-12T15:43:47.026Z,2.00
2022-09-12T15:44:47.006Z,1.80
2022-09-12T15:45:46.996Z,2.10
2022-09-12T15:46:47.034Z,2.20
2022-09-12T15:47:46.967Z,1.80
2022-09-12T15:48:46.958Z,2.00
2022-09-12T15:49:46.937Z,2.00
2022-09-12T15:50:46.927Z,2.00
2022-09-12T15:51:46.918Z,2.00
2022-09-12T15:52:46.906Z,2.00
2022-09-12T15:53:46.993Z,2.00
2022-09-12T15:54:46.878Z,1.90
2022-09-12T15:55:46.886Z,1.80
2022-09-12T15:56:46.848Z,2.00
2022-09-12T15:57:46.847Z,2.20
2022-09-12T15:58:58.213Z,2.00
2022-09-12T15:59:47.819Z,2.00
2022-09-12T16:00:46.798Z,2.00
2022-09-12T16:01:46.823Z,2.10
2022-09-12T16:02:46.808Z,1.90
2022-09-12T16:03:46.848Z,1.90
2022-09-12T16:04:46.749Z,2.10
2022-09-12T16:05:46.748Z,1.80
2022-09-12T16:06:46.727Z,2.00
2022-09-12T16:07:46.720Z,1.80
2022-09-12T16:08:46.778Z,2.00
2022-09-12T16:09:46.754Z,1.90
2022-09-12T16:10:46.670Z,1.90
2022-09-12T16:11:46.669Z,1.90
2022-09-12T16:12:46.650Z,2.00
2022-09-12T16:13:46.651Z,1.90
2022-09-12T16:14:46.620Z,2.30
2022-09-12T16:15:46.700Z,1.80
2022-09-12T16:16:46.600Z,1.80
2022-09-12T16:17:46.600Z,2.00
2022-09-12T16:18:46.738Z,1.90
2022-09-12T16:19:46.568Z,2.10
2022-09-12T16:20:46.552Z,1.80
2022-09-12T16:21:46.541Z,2.10
2022-09-12T16:22:46.520Z,1.80
2022-09-12T16:23:46.520Z,1.80
2022-09-12T16:24:46.502Z,1.80
2022-09-12T16:25:46.493Z,1.90
2022-09-12T16:26:46.471Z,1.90
2022-09-12T16:27:46.461Z,1.70
2022-09-12T16:28:46.452Z,1.80
2022-09-12T16:29:46.439Z,1.70
2022-09-12T16:30:46.460Z,1.90
2022-09-12T16:31:46.420Z,1.90
2022-09-12T16:32:46.412Z,1.80
2022-09-12T16:33:46.383Z,1.80
2022-09-12T16:34:46.374Z,1.80
2022-09-12T16:35:46.366Z,1.80
2022-09-12T16:36:46.342Z,2.00
2022-09-12T16:37:46.351Z,1.90
2022-09-12T16:38:46.324Z,1.80
2022-09-12T16:39:46.344Z,2.20
2022-09-12T16:40:46.323Z,2.00
2022-09-12T16:41:46.291Z,2.00
2022-09-12T16:42:46.273Z,1.90
2022-09-12T16:43:46.385Z,2.10
2022-09-12T16:44:46.258Z,2.00
2022-09-12T16:45:53.293Z,2.20
2022-09-12T16:46:46.287Z,1.90
2022-09-12T16:47:46.206Z,2.00
2022-09-12T16:48:51.149Z,1.90
2022-09-12T16:49:47.181Z,2.10
2022-09-12T16:50:46.182Z,2.10
2022-09-12T16:51:46.153Z,1.90
2022-09-12T16:52:46.154Z,1.80
2022-09-12T16:53:46.151Z,1.90
2022-09-12T16:54:46.144Z,2.00
2022-09-12T16:55:46.106Z,2.20
2022-09-12T16:56:46.102Z,1.90
2022-09-12T16:57:46.082Z,1.60
2022-09-12T16:58:46.088Z,1.80
2022-09-12T16:59:46.053Z,1.70
2022-09-12T17:00:46.054Z,2.00
2022-09-12T17:01:46.059Z,2.00
2022-09-12T17:02:46.054Z,2.00
2022-09-12T17:03:46.023Z,1.80
2022-09-12T17:04:45.994Z,1.90
2022-09-12T17:05:45.974Z,1.90
2022-09-12T17:06:45.975Z,1.90
2022-09-12T17:07:45.965Z,2.00
2022-09-12T17:08:45.987Z,2.00
2022-09-12T17:09:47.961Z,1.90
2022-09-12T17:10:45.914Z,2.50
2022-09-12T17:11:45.902Z,2.00
2022-09-12T17:12:45.914Z,2.00
2022-09-12T17:14:03.876Z,2.10
2022-09-12T17:14:46.894Z,2.10
2022-09-12T17:15:45.874Z,2.20
2022-09-12T17:16:50.780Z,2.20
2022-09-12T17:17:46.836Z,2.00
2022-09-12T17:18:45.816Z,2.20
2022-09-12T17:19:45.803Z,2.60
2022-09-12T17:20:45.786Z,2.20
2022-09-12T17:21:45.804Z,2.10
2022-09-12T17:22:45.813Z,2.10
2022-09-12T17:23:45.830Z,2.20
2022-09-12T17:24:45.789Z,2.30
2022-09-12T17:25:45.736Z,2.70
2022-09-12T17:26:45.740Z,2.20
2022-09-12T17:27:45.706Z,2.30
2022-09-12T17:28:45.757Z,2.30
2022-09-12T17:29:45.675Z,2.60
2022-09-12T17:30:45.727Z,2.30
2022-09-12T17:31:45.655Z,2.50
2022-09-12T17:32:45.654Z,2.30
2022-09-12T17:33:45.702Z,2.30
2022-09-12T17:34:45.624Z,2.40
2022-09-12T17:35:45.606Z,2.20
2022-09-12T17:36:45.601Z,2.50
2022-09-12T17:37:45.580Z,2.60
2022-09-12T17:38:45.556Z,2.10
2022-09-12T17:39:45.635Z,2.40
2022-09-12T17:40:58.901Z,3.40
2022-09-12T17:41:46.528Z,2.60
2022-09-12T17:42:45.558Z,2.50